Time;durP1;ratioP1;P1;durP2;ratioP2;P2;SDS_P1;SDS_P2;PMS_P1;PMS_P2;Temp;Humidity;BMP_temperature;BMP_pressure;BME280_temperature;BME280_humidity;BME280_pressure;Samples;Min_cycle;Max_cycle;Signal;HPM_P1;HPM_P2
2021/05/18 00:00:19;309777.00;1.03;534.73;76018.00;0.25;132.16;;;;;15.60;1.00;;;;;;2264809;61;1072;-85
2021/05/18 00:02:45;343141.00;1.14;592.07;77024.00;0.26;133.90;;;;;15.50;1.00;;;;;;2266353;61;1182;-84
2021/05/18 00:05:14;346026.00;1.15;597.03;71934.00;0.24;125.10;;;;;15.20;1.00;;;;;;2266013;61;1362;-85
2021/05/18 00:07:47;315407.00;1.05;544.40;83071.00;0.28;144.34;;;;;15.20;1.00;;;;;;2265838;61;1115;-84
2021/05/18 00:12:59;241891.00;0.81;418.00;0.00;0.00;0.62;;;;;14.80;1.00;;;;;;2265902;61;701;-85
2021/05/18 00:15:26;292352.00;0.97;504.77;83322.00;0.28;144.78;;;;;14.80;1.00;;;;;;2266049;61;1440;-85
2021/05/18 00:17:52;328915.00;1.10;567.62;78113.00;0.26;135.78;;;;;14.60;1.00;;;;;;2266484;61;1175;-85
2021/05/18 00:20:19;356619.00;1.19;615.24;92143.00;0.31;160.01;;;;;14.70;1.00;;;;;;2265687;61;1204;-85
2021/05/18 00:22:47;255508.00;0.85;441.42;78631.00;0.26;136.67;;;;;14.30;1.00;;;;;;2266311;61;1588;-85
2021/05/18 00:25:14;247239.00;0.82;427.20;59891.00;0.20;104.29;;;;;14.40;1.00;;;;;;2266225;61;1267;-85
2021/05/18 00:27:41;293838.00;0.98;507.33;78909.00;0.26;137.15;;;;;14.70;1.00;;;;;;2266154;61;2051;-85
2021/05/18 00:30:11;328210.00;1.09;566.41;76326.00;0.25;132.69;;;;;14.80;1.00;;;;;;2267019;61;1061;-85
2021/05/18 00:32:39;378514.00;1.26;652.87;78349.00;0.26;136.19;;;;;14.80;1.00;;;;;;2269293;61;1644;-85
2021/05/18 00:35:08;324282.00;1.08;559.66;81184.00;0.27;141.08;;;;;14.50;1.00;;;;;;2266108;61;1274;-85
2021/05/18 00:37:35;347120.00;1.16;598.91;75662.00;0.25;131.54;;;;;14.30;1.00;;;;;;2266164;61;1093;-85
2021/05/18 00:40:02;388146.00;1.29;669.43;77204.00;0.26;134.21;;;;;14.50;1.00;;;;;;2266453;61;1251;-85
2021/05/18 00:42:28;338699.00;1.13;584.44;95191.00;0.32;165.27;;;;;14.70;1.00;;;;;;2266618;61;1196;-85
2021/05/18 00:44:55;313380.00;1.04;540.92;79017.00;0.26;137.34;;;;;14.50;1.00;;;;;;2266673;61;1373;-85
2021/05/18 00:47:22;302352.00;1.01;521.96;82551.00;0.28;143.44;;;;;14.50;1.00;;;;;;2266888;61;2009;-85
2021/05/18 00:49:49;318140.00;1.06;549.10;80365.00;0.27;139.67;;;;;14.50;1.00;;;;;;2266455;61;1201;-85
2021/05/18 00:52:16;283621.00;0.95;489.76;86442.00;0.29;150.16;;;;;14.70;1.00;;;;;;2267712;61;1151;-85
2021/05/18 00:54:47;374819.00;1.25;646.52;77993.00;0.26;135.57;;;;;14.60;1.00;;;;;;2268054;61;1366;-85
2021/05/18 00:59:59;401945.00;1.34;693.15;80570.00;0.27;140.02;;;;;14.60;1.00;;;;;;2267931;61;754;-85
2021/05/18 01:02:26;228300.00;0.76;394.62;83217.00;0.28;144.59;;;;;14.60;1.00;;;;;;2267859;61;1762;-85
2021/05/18 01:05:07;374994.00;1.25;646.82;76691.00;0.26;133.32;;;;;14.60;1.00;;;;;;2267507;61;1363;-86
2021/05/18 01:07:34;444407.00;1.48;766.16;78198.00;0.26;135.92;;;;;14.60;1.00;;;;;;2268073;61;1938;-86
2021/05/18 01:10:00;405469.00;1.35;699.21;113620.00;0.38;197.08;;;;;14.50;1.00;;;;;;2268284;61;1148;-85
2021/05/18 01:12:27;257205.00;0.86;444.34;61754.00;0.21;107.51;;;;;14.60;1.00;;;;;;2268345;61;1084;-86
2021/05/18 01:14:53;239442.00;0.80;413.79;74746.00;0.25;129.96;;;;;14.80;1.00;;;;;;2268259;61;1396;-86
2021/05/18 01:17:20;276627.00;0.92;477.74;79056.00;0.26;137.41;;;;;14.90;1.00;;;;;;2267994;61;1642;-86
2021/05/18 01:19:47;275928.00;0.92;476.54;82169.00;0.27;142.78;;;;;15.00;1.00;;;;;;2268028;61;1195;-85
2021/05/18 01:22:14;229405.00;0.76;396.53;78379.00;0.26;136.24;;;;;15.20;1.00;;;;;;2267667;61;1187;-85
2021/05/18 01:24:41;253414.00;0.84;437.82;82208.00;0.27;142.85;;;;;15.00;1.00;;;;;;2267999;61;1305;-86
2021/05/18 01:27:08;268368.00;0.89;463.54;77135.00;0.26;134.09;;;;;15.10;1.00;;;;;;2267703;61;1943;-85
2021/05/18 01:29:34;268065.00;0.89;463.02;80949.00;0.27;140.68;;;;;14.70;1.00;;;;;;2267830;61;1106;-85
2021/05/18 01:32:03;307093.00;1.02;530.11;80760.00;0.27;140.35;;;;;14.50;1.00;;;;;;2267765;61;1123;-85
2021/05/18 01:34:29;276562.00;0.92;477.63;70884.00;0.24;123.29;;;;;14.30;1.00;;;;;;2270602;61;1384;-85
2021/05/18 01:36:55;342815.00;1.14;591.51;79067.00;0.26;137.43;;;;;14.30;1.00;;;;;;2268566;61;1139;-86
2021/05/18 01:39:49;329466.00;1.10;568.57;79615.00;0.27;138.37;;;;;14.20;1.00;;;;;;2268806;61;1147;-85
2021/05/18 01:45:00;438577.00;1.46;756.14;66820.00;0.22;116.26;;;;;14.60;1.00;;;;;;2267623;61;1383;-85
2021/05/18 01:47:27;117462336.00;391.54;65648536.00;83839.00;0.28;145.67;;;;;14.80;1.00;;;;;;2267159;61;1956;-85
2021/05/18 01:49:54;328316.00;1.09;566.59;76925.00;0.26;133.73;;;;;14.60;1.00;;;;;;2267112;61;1132;-85
2021/05/18 01:52:20;336028.00;1.12;579.85;75511.00;0.25;131.28;;;;;14.90;1.00;;;;;;2267150;61;1104;-85
2021/05/18 01:54:50;330383.00;1.10;570.14;76325.00;0.25;132.69;;;;;15.20;1.00;;;;;;2267490;61;1290;-85
2021/05/18 01:57:19;323555.00;1.08;558.41;73064.00;0.24;127.05;;;;;15.40;1.00;;;;;;2267740;61;1056;-85
2021/05/18 01:59:47;411750.00;1.37;710.01;82026.00;0.27;142.54;;;;;15.60;1.00;;;;;;2267303;61;1209;-85
2021/05/18 02:02:14;280869.00;0.94;485.03;80035.00;0.27;139.10;;;;;15.50;1.00;;;;;;2267091;61;1073;-85
2021/05/18 02:04:44;355798.00;1.19;613.83;74086.00;0.25;128.82;;;;;15.70;1.00;;;;;;2268487;61;1359;-85
2021/05/18 02:07:13;382621.00;1.28;659.93;82107.00;0.27;142.68;;;;;15.80;1.00;;;;;;2271936;61;2001;-85
2021/05/18 02:09:39;295333.00;0.98;509.90;78360.00;0.26;136.20;;;;;15.80;1.00;;;;;;2272138;61;1195;-85
2021/05/18 02:12:07;336342.00;1.12;580.39;82276.00;0.27;142.97;;;;;15.90;1.00;;;;;;2272440;61;1156;-84
2021/05/18 02:14:35;356962.00;1.19;615.83;77292.00;0.26;134.36;;;;;15.80;1.00;;;;;;2272412;61;1373;-85
2021/05/18 02:17:08;118324400.00;394.41;67105892.00;78881.00;0.26;137.10;;;;;15.80;1.00;;;;;;2272555;61;1088;-85
2021/05/18 02:20:08;225109.00;0.75;389.13;65554.00;0.22;114.08;;;;;15.80;1.00;;;;;;2272407;61;1095;-85
2021/05/18 02:25:23;254884.00;0.85;440.35;78254.00;0.26;136.02;;;;;15.50;1.00;;;;;;2272344;61;1453;-85
2021/05/18 02:27:53;61134.00;0.20;106.44;0.00;0.00;0.62;;;;;16.00;1.00;;;;;;2272469;61;2129;-85
2021/05/18 02:30:21;93722.00;0.31;162.73;0.00;0.00;0.62;;;;;15.90;1.00;;;;;;2272459;61;1195;-85
2021/05/18 02:32:49;84379.00;0.28;146.60;0.00;0.00;0.62;;;;;15.80;1.00;;;;;;2272334;61;1674;-86
2021/05/18 02:35:17;90295.00;0.30;156.82;0.00;0.00;0.62;;;;;15.30;1.00;;;;;;2272123;61;1273;-86
2021/05/18 02:37:46;59895.00;0.20;104.30;0.00;0.00;0.62;;;;;15.20;1.00;;;;;;2271945;61;1135;-85
2021/05/18 02:40:19;235680.00;0.79;407.32;0.00;0.00;0.62;;;;;15.20;1.00;;;;;;2271994;61;1279;-85
2021/05/18 02:42:46;305863.00;1.02;528.00;57513.00;0.19;100.18;;;;;15.20;1.00;;;;;;2272278;61;1740;-85
2021/05/18 02:45:20;236264.00;0.79;408.32;89121.00;0.30;154.79;;;;;15.20;1.00;;;;;;2272381;61;1394;-86
2021/05/18 02:50:31;336377.00;1.12;580.45;82067.00;0.27;142.61;;;;;14.30;1.00;;;;;;2272449;61;740;-84
2021/05/18 02:52:58;130206.00;0.43;225.68;0.00;0.00;0.62;;;;;13.90;1.00;;;;;;2272243;61;1107;-84
2021/05/18 02:55:31;188432.00;0.63;326.01;0.00;0.00;0.62;;;;;13.70;1.00;;;;;;2272313;61;1354;-84
2021/05/18 02:57:57;248240.00;0.83;428.92;26939.00;0.09;47.28;;;;;13.90;1.00;;;;;;2272328;61;1101;-84
2021/05/18 03:00:26;108639.00;0.36;188.48;0.00;0.00;0.62;;;;;13.70;1.00;;;;;;2272279;61;1005;-84
2021/05/18 03:02:52;213271.00;0.71;368.76;0.00;0.00;0.62;;;;;13.50;1.00;;;;;;2272289;61;1609;-84
2021/05/18 03:05:20;154396.00;0.51;267.38;0.00;0.00;0.62;;;;;13.30;1.00;;;;;;2272286;61;1284;-84
2021/05/18 03:07:46;58734.00;0.20;102.29;0.00;0.00;0.62;;;;;13.40;1.00;;;;;;2272233;61;2005;-84
2021/05/18 03:10:14;172356.00;0.57;298.32;0.00;0.00;0.62;;;;;13.50;1.00;;;;;;2272288;61;1072;-84
2021/05/18 03:12:41;197162.00;0.66;341.04;0.00;0.00;0.62;;;;;13.60;1.00;;;;;;2272142;61;1682;-84
2021/05/18 03:15:09;223995.00;0.75;387.22;0.00;0.00;0.62;;;;;13.60;1.00;;;;;;2270515;61;1379;-84
2021/05/18 03:17:37;136576.00;0.46;236.67;0.00;0.00;0.62;;;;;13.80;1.00;;;;;;2269470;61;1128;-84
2021/05/18 03:20:04;265965.00;0.89;459.41;20474.00;0.07;36.09;;;;;14.10;1.00;;;;;;2268143;61;1108;-84
2021/05/18 03:22:31;155588.00;0.52;269.44;0.00;0.00;0.62;;;;;14.20;1.00;;;;;;2267184;61;1124;-84
2021/05/18 03:24:57;221053.00;0.74;382.16;0.00;0.00;0.62;;;;;14.20;1.00;;;;;;2267273;61;1286;-84
2021/05/18 03:27:27;98860.00;0.33;171.60;0.00;0.00;0.62;;;;;14.60;1.00;;;;;;2267082;61;2004;-84
2021/05/18 03:29:54;168258.00;0.56;291.27;0.00;0.00;0.62;;;;;14.70;1.00;;;;;;2269759;61;1105;-83
2021/05/18 03:35:07;307420.00;1.02;530.67;78691.00;0.26;136.78;;;;;14.40;1.00;;;;;;2266538;61;1326;-84
2021/05/18 03:37:43;131897.00;0.44;228.60;0.00;0.00;0.62;;;;;14.30;1.00;;;;;;2266456;61;1181;-84
2021/05/18 03:40:13;244993.00;0.82;423.34;6546.00;0.02;11.96;;;;;14.40;1.00;;;;;;2266873;61;1078;-84
2021/05/18 03:42:41;140380.00;0.47;243.23;0.00;0.00;0.62;;;;;14.60;1.00;;;;;;2267255;61;1166;-84
2021/05/18 03:45:15;267860.00;0.89;462.66;52386.00;0.17;91.31;;;;;14.60;1.00;;;;;;2266794;61;1273;-84
2021/05/18 03:53:42;82037.00;0.27;142.56;0.00;0.00;0.62;;;;;15.30;1.00;;;;;;2266663;61;606;-85
2021/05/18 03:59:03;281195.00;0.94;485.59;81288.00;0.27;141.26;;;;;15.40;1.00;;;;;;2266997;61;784;-84
2021/05/18 04:04:18;180485.00;0.60;312.32;0.00;0.00;0.62;;;;;15.40;1.00;;;;;;2267092;61;1441;-84
2021/05/18 04:12:42;147627.00;0.49;255.72;0.00;0.00;0.62;;;;;14.80;1.00;;;;;;2266436;61;701;-85
2021/05/18 04:17:59;159854.00;0.53;276.79;0.00;0.00;0.62;;;;;14.70;1.00;;;;;;2266773;61;717;-85
2021/05/18 04:20:35;108590.00;0.36;188.40;0.00;0.00;0.62;;;;;15.00;1.00;;;;;;2268891;61;1155;-85
2021/05/18 04:26:24;329599.00;1.10;568.80;80709.00;0.27;140.26;;;;;15.40;1.00;;;;;;2263674;61;1996;-84
2021/05/18 04:48:47;280726.00;0.94;484.79;0.00;0.00;0.62;;;;;15.10;1.00;;;;;;2270024;61;815;-85
2021/05/18 04:51:24;299430.00;1.00;516.94;0.00;0.00;0.62;;;;;15.40;1.00;;;;;;2265664;61;1190;-86
2021/05/18 04:54:11;243231.00;0.81;420.31;77963.00;0.26;135.52;;;;;15.60;1.00;;;;;;2265489;61;1880;-85
2021/05/18 04:59:25;476693.00;1.59;821.71;88056.00;0.29;152.95;;;;;15.90;1.00;;;;;;2266208;61;767;-86
2021/05/18 05:02:06;231544.00;0.77;400.21;85995.00;0.29;149.39;;;;;15.90;1.00;;;;;;2265994;61;1144;-86
2021/05/18 05:07:17;437778.00;1.46;754.76;84581.00;0.28;146.95;;;;;15.90;1.00;;;;;;2264713;61;2020;-85
2021/05/18 05:09:45;268378.00;0.89;463.55;77033.00;0.26;133.91;;;;;16.30;1.00;;;;;;2264262;61;1139;-85
2021/05/18 05:14:57;268361.00;0.89;463.53;73612.00;0.25;128.00;;;;;16.10;1.00;;;;;;2264654;61;1407;-85
2021/05/18 05:17:23;240497.00;0.80;415.61;0.00;0.00;0.62;;;;;16.40;1.00;;;;;;2264378;61;1133;-85
2021/05/18 05:19:50;127484.00;0.42;220.99;0.00;0.00;0.62;;;;;16.50;1.00;;;;;;2264545;61;1232;-85
2021/05/18 05:22:16;54576.00;0.18;95.10;0.00;0.00;0.62;;;;;16.30;1.00;;;;;;2257459;61;1042;-85
2021/05/18 05:24:44;245668.00;0.82;424.50;16794.00;0.06;29.72;;;;;16.40;1.00;;;;;;2264875;61;1281;-85
2021/05/18 05:27:12;77565.00;0.26;134.83;0.00;0.00;0.62;;;;;16.40;1.00;;;;;;2265285;61;2004;-85
2021/05/18 05:29:38;123387.00;0.41;213.92;0.00;0.00;0.62;;;;;16.40;1.00;;;;;;2272435;61;1101;-85
2021/05/18 05:32:05;53073.00;0.18;92.50;0.00;0.00;0.62;;;;;16.70;1.00;;;;;;2266349;61;1109;-84
2021/05/18 05:34:31;148930.00;0.50;257.96;2068.00;0.01;4.20;;;;;16.80;1.00;;;;;;2264148;61;1366;-85
2021/05/18 05:36:58;65143.00;0.22;113.37;0.00;0.00;0.62;;;;;16.50;1.00;;;;;;2263671;61;1172;-84
2021/05/18 05:39:24;119513.00;0.40;207.24;0.00;0.00;0.62;;;;;16.30;1.00;;;;;;2264130;61;2139;-85
2021/05/18 05:41:52;116567.00;0.39;202.16;0.00;0.00;0.62;;;;;16.10;1.00;;;;;;2264410;61;1137;-85
2021/05/18 05:44:20;122927.00;0.41;213.13;0.00;0.00;0.62;;;;;16.20;1.00;;;;;;2264485;61;1339;-84
2021/05/18 05:46:46;45242.00;0.15;78.96;0.00;0.00;0.62;;;;;16.30;1.00;;;;;;2263801;61;2004;-85
2021/05/18 05:49:13;165605.00;0.55;286.70;339.00;0.00;1.21;;;;;16.50;1.00;;;;;;2263578;61;1568;-83
2021/05/18 05:51:39;67437.00;0.22;117.33;0.00;0.00;0.62;;;;;16.20;1.00;;;;;;2263113;61;1246;-84
2021/05/18 05:54:06;76938.00;0.26;133.75;0.00;0.00;0.62;;;;;15.90;1.00;;;;;;2263974;61;1283;-84
2021/05/18 05:56:33;225308.00;0.75;389.48;0.00;0.00;0.62;;;;;15.20;1.00;;;;;;2268229;61;1180;-84
2021/05/18 05:59:01;56598.00;0.19;98.60;0.00;0.00;0.62;;;;;15.10;1.00;;;;;;2263489;61;1243;-84
2021/05/18 06:01:31;22994.00;0.08;40.45;0.00;0.00;0.62;;;;;14.80;1.00;;;;;;2263439;61;1093;-84
2021/05/18 06:03:57;51358.00;0.17;89.53;0.00;0.00;0.62;;;;;14.90;1.00;;;;;;2262894;61;1395;-84
2021/05/18 06:06:23;78202.00;0.26;135.93;0.00;0.00;0.62;;;;;14.80;1.00;;;;;;2264054;61;2008;-84
2021/05/18 06:08:50;150180.00;0.50;260.12;0.00;0.00;0.62;;;;;15.00;1.00;;;;;;2267288;61;1089;-83
2021/05/18 06:11:22;222123.00;0.74;384.00;0.00;0.00;0.62;;;;;14.80;1.00;;;;;;2272173;61;1169;-83
2021/05/18 06:14:05;75918.00;0.25;131.99;0.00;0.00;0.62;;;;;14.90;1.00;;;;;;2263955;61;1259;-85
2021/05/18 06:16:57;108289.00;0.36;187.88;0.00;0.00;0.62;;;;;14.90;1.00;;;;;;2264114;61;1277;-84
2021/05/18 06:46:53;284172.00;0.95;490.71;64955.00;0.22;113.04;;;;;15.40;1.00;;;;;;2264238;61;1994;-85
2021/05/18 06:49:21;41901.00;0.14;73.18;0.00;0.00;0.62;;;;;15.20;1.00;;;;;;2265528;61;1187;-86
2021/05/18 06:51:47;189753.00;0.63;328.28;0.00;0.00;0.62;;;;;15.30;1.00;;;;;;2272596;61;1217;-87
2021/05/18 06:54:14;57763.00;0.19;100.61;0.00;0.00;0.62;;;;;15.50;1.00;;;;;;2272357;61;1379;-86
2021/05/18 06:56:41;85316.00;0.28;148.22;0.00;0.00;0.62;;;;;15.40;1.00;;;;;;2272390;61;1124;-86
2021/05/18 07:01:56;57456.00;0.19;100.08;0.00;0.00;0.62;;;;;15.70;1.00;;;;;;2272616;61;732;-88
2021/05/18 07:04:24;58086.00;0.19;101.17;0.00;0.00;0.62;;;;;15.80;1.00;;;;;;2272495;61;1350;-87
2021/05/18 07:06:57;55670.00;0.19;96.99;0.00;0.00;0.62;;;;;15.20;1.00;;;;;;2268179;61;2004;-85
2021/05/18 07:09:24;113871.00;0.38;197.51;0.00;0.00;0.62;;;;;15.20;1.00;;;;;;2265202;61;1169;-85
2021/05/18 07:11:50;81775.00;0.27;142.10;0.00;0.00;0.62;;;;;15.00;1.00;;;;;;2265212;61;1208;-85
2021/05/18 07:14:17;133559.00;0.45;231.47;0.00;0.00;0.62;;;;;14.90;1.00;;;;;;2265056;61;1377;-86
2021/05/18 07:16:43;111750.00;0.37;193.85;0.00;0.00;0.62;;;;;15.10;1.00;;;;;;2264849;61;1169;-86
2021/05/18 07:19:10;71183.00;0.24;123.80;0.00;0.00;0.62;;;;;15.30;1.00;;;;;;2264581;61;1260;-86
2021/05/18 07:21:37;84608.00;0.28;147.00;0.00;0.00;0.62;;;;;15.60;1.00;;;;;;2265076;61;1214;-86
2021/05/18 07:24:09;116535.00;0.39;202.11;0.00;0.00;0.62;;;;;16.00;1.00;;;;;;2264704;61;1294;-86
2021/05/18 07:26:35;93098.00;0.31;161.66;0.00;0.00;0.62;;;;;16.00;1.00;;;;;;2264872;61;1977;-86
2021/05/18 07:29:02;78060.00;0.26;135.69;0.00;0.00;0.62;;;;;16.00;1.00;;;;;;2265186;61;1150;-87
2021/05/18 07:31:29;44464.00;0.15;77.61;0.00;0.00;0.62;;;;;15.80;1.00;;;;;;2264989;61;1238;-87
2021/05/18 07:33:55;56853.00;0.19;99.04;0.00;0.00;0.62;;;;;15.70;1.00;;;;;;2265249;61;1391;-86
2021/05/18 07:36:21;112255.00;0.37;194.72;0.00;0.00;0.62;;;;;15.50;1.00;;;;;;2266472;61;1148;-87
2021/05/18 07:38:50;108810.00;0.36;188.78;0.00;0.00;0.62;;;;;15.40;1.00;;;;;;2264806;61;1113;-86
2021/05/18 07:41:16;106199.00;0.35;184.27;0.00;0.00;0.62;;;;;15.20;1.00;;;;;;2264084;61;1133;-86
2021/05/18 07:43:43;131289.00;0.44;227.55;0.00;0.00;0.62;;;;;15.20;1.00;;;;;;2263937;61;1085;-86
2021/05/18 07:46:15;122795.00;0.41;212.90;0.00;0.00;0.62;;;;;15.20;1.00;;;;;;2264430;61;2012;-86
2021/05/18 07:48:45;96984.00;0.32;168.37;0.00;0.00;0.62;;;;;15.10;1.00;;;;;;2264690;61;1149;-86
2021/05/18 07:51:20;129848.00;0.43;225.07;0.00;0.00;0.62;;;;;14.80;1.00;;;;;;2264118;61;1096;-86
2021/05/18 07:59:25;175470.00;0.58;303.69;0.00;0.00;0.62;;;;;15.10;1.00;;;;;;2272003;61;685;-86
2021/05/18 08:07:22;101161.00;0.34;175.58;0.00;0.00;0.62;;;;;14.10;1.00;;;;;;2273512;61;1984;-86
2021/05/18 08:09:51;88801.00;0.30;154.24;0.00;0.00;0.62;;;;;14.10;1.00;;;;;;2271924;61;1149;-86
2021/05/18 08:12:19;231811.00;0.77;400.66;0.00;0.00;0.62;;;;;14.40;1.00;;;;;;2265978;61;1091;-86
2021/05/18 08:14:49;204373.00;0.68;353.45;0.00;0.00;0.62;;;;;14.50;1.00;;;;;;2266657;61;1401;-86
2021/05/18 08:17:21;165042.00;0.55;285.73;0.00;0.00;0.62;;;;;14.70;1.00;;;;;;2266308;61;1134;-86
2021/05/18 08:56:30;67800.00;0.23;117.96;0.00;0.00;0.62;;;;;16.00;1.00;;;;;;2263079;61;1633;-87
2021/05/18 09:44:07;322220.00;1.07;556.11;38456.00;0.13;67.22;;;;;18.80;1.00;;;;;;2245588;61;781;-87
2021/05/18 10:35:48;222252.00;0.74;384.22;35337.00;0.12;61.82;;;;;17.80;1.00;;;;;;2258938;61;1320;-86
2021/05/18 10:38:25;247234.00;0.82;427.19;68556.00;0.23;119.27;;;;;18.30;1.00;;;;;;2257520;61;1247;-86
2021/05/18 10:40:53;307223.00;1.02;530.34;82109.00;0.27;142.68;;;;;18.30;1.00;;;;;;2257830;61;1738;-86
2021/05/18 10:43:29;89201.00;0.30;154.93;0.00;0.00;0.62;;;;;18.60;1.00;;;;;;2257780;61;1213;-88
2021/05/18 10:46:14;269904.00;0.90;466.18;78387.00;0.26;136.25;;;;;18.60;1.00;;;;;;2257438;61;1454;-87
2021/05/18 10:49:07;291741.00;0.97;503.72;60841.00;0.20;105.93;;;;;18.50;1.00;;;;;;2257734;61;2063;-88
2021/05/18 10:51:57;307907.00;1.03;531.51;5418.00;0.02;10.01;;;;;18.60;1.00;;;;;;2258376;61;1739;-87
2021/05/18 10:54:26;243168.00;0.81;420.20;0.00;0.00;0.62;;;;;18.30;1.00;;;;;;2269120;61;1286;-87
2021/05/18 10:57:21;62126.00;0.21;108.15;0.00;0.00;0.62;;;;;18.60;1.00;;;;;;2270517;61;1165;-87
2021/05/18 10:59:57;18515.00;0.06;32.70;0.00;0.00;0.62;;;;;19.00;1.00;;;;;;2270311;61;1164;-86
2021/05/18 11:02:29;96265.00;0.32;167.12;0.00;0.00;0.62;;;;;18.40;1.00;;;;;;2268520;61;1157;-87
2021/05/18 11:04:59;0.00;0.00;0.62;0.00;0.00;0.62;;;;;18.60;1.00;;;;;;2268650;61;1432;-86
2021/05/18 11:07:34;52140.00;0.17;90.89;0.00;0.00;0.62;;;;;19.00;1.00;;;;;;2268723;61;1923;-87
2021/05/18 11:10:03;51662.00;0.17;90.06;0.00;0.00;0.62;;;;;19.30;1.00;;;;;;2267759;61;1231;-87
2021/05/18 11:12:30;58399.00;0.19;101.71;0.00;0.00;0.62;;;;;19.20;1.00;;;;;;2269226;61;1149;-87
2021/05/18 11:15:11;16930.00;0.06;29.95;0.00;0.00;0.62;;;;;18.90;1.00;;;;;;2269655;61;1368;-87
2021/05/18 11:17:38;164420.00;0.55;284.65;0.00;0.00;0.62;;;;;18.80;1.00;;;;;;2262463;61;1184;-88
2021/05/18 11:20:14;77126.00;0.26;134.07;0.00;0.00;0.62;;;;;18.50;1.00;;;;;;2265477;61;1192;-87
2021/05/18 11:25:50;70213.00;0.23;122.13;0.00;0.00;0.62;;;;;18.80;1.00;;;;;;2270235;61;1434;-88
2021/05/18 11:28:26;85542.00;0.29;148.61;0.00;0.00;0.62;;;;;18.70;1.00;;;;;;2269940;61;1936;-88
2021/05/18 11:30:55;79892.00;0.27;138.85;0.00;0.00;0.62;;;;;18.60;1.00;;;;;;2269724;61;1046;-88
2021/05/18 11:33:29;97678.00;0.33;169.56;0.00;0.00;0.62;;;;;19.00;1.00;;;;;;2270497;61;1172;-88
2021/05/18 11:36:07;129586.00;0.43;224.62;0.00;0.00;0.62;;;;;19.30;1.00;;;;;;2270379;61;1435;-87
2021/05/18 11:38:34;103544.00;0.35;179.69;0.00;0.00;0.62;;;;;18.90;1.00;;;;;;2270507;61;1135;-88
2021/05/18 11:41:01;69259.00;0.23;120.48;0.00;0.00;0.62;;;;;18.90;1.00;;;;;;2270015;61;1236;-88
2021/05/18 11:43:34;64688.00;0.22;112.58;0.00;0.00;0.62;;;;;18.60;1.00;;;;;;2270550;61;1053;-90
2021/05/18 11:46:07;151597.00;0.51;262.56;0.00;0.00;0.62;;;;;18.80;1.00;;;;;;2263174;61;1462;-89
2021/05/18 11:48:34;51142.00;0.17;89.16;0.00;0.00;0.62;;;;;18.90;1.00;;;;;;2269600;61;2001;-88
2021/05/18 11:51:04;50182.00;0.17;87.50;0.00;0.00;0.62;;;;;18.80;1.00;;;;;;2269425;61;1187;-89
2021/05/18 11:53:34;108781.00;0.36;188.73;0.00;0.00;0.62;;;;;19.10;1.00;;;;;;2259634;61;1237;-89
2021/05/18 11:56:14;176864.00;0.59;306.09;0.00;0.00;0.62;;;;;19.40;1.00;;;;;;2260609;61;1294;-88
2021/05/18 11:58:40;10676.00;0.04;19.12;0.00;0.00;0.62;;;;;18.70;1.00;;;;;;2260977;61;1156;-89
2021/05/18 12:01:08;50882.00;0.17;88.71;0.00;0.00;0.62;;;;;19.10;1.00;;;;;;2259791;61;1102;-88
2021/05/18 12:03:35;45978.00;0.15;80.23;0.00;0.00;0.62;;;;;19.20;1.00;;;;;;2259196;61;1189;-87
2021/05/18 12:06:04;73125.00;0.24;127.16;0.00;0.00;0.62;;;;;18.90;1.00;;;;;;2259240;61;1292;-87
2021/05/18 12:08:32;96199.00;0.32;167.01;0.00;0.00;0.62;;;;;18.70;1.00;;;;;;2259058;61;1936;-87
2021/05/18 12:11:15;29127.00;0.10;51.07;0.00;0.00;0.62;;;;;18.60;1.00;;;;;;2259802;61;1483;-87
2021/05/18 12:13:43;47802.00;0.16;83.38;0.00;0.00;0.62;;;;;18.60;1.00;;;;;;2263500;61;1130;-87
2021/05/18 12:16:12;89199.00;0.30;154.92;0.00;0.00;0.62;;;;;18.90;1.00;;;;;;2261326;61;1342;-88
2021/05/18 12:18:40;59546.00;0.20;103.69;0.00;0.00;0.62;;;;;19.00;1.00;;;;;;2261957;61;1177;-88
2021/05/18 12:21:12;193963.00;0.65;335.53;0.00;0.00;0.62;;;;;19.10;1.00;;;;;;2269474;61;1135;-88
2021/05/18 12:23:39;65573.00;0.22;114.11;0.00;0.00;0.62;;;;;19.40;1.00;;;;;;2271111;61;1077;-88
2021/05/18 12:26:23;110371.00;0.37;191.47;0.00;0.00;0.62;;;;;19.60;1.00;;;;;;2262331;61;1282;-87
2021/05/18 12:28:54;78467.00;0.26;136.39;0.00;0.00;0.62;;;;;19.80;1.00;;;;;;2256031;61;2035;-87
2021/05/18 12:31:29;51519.00;0.17;89.81;0.00;0.00;0.62;;;;;19.80;1.00;;;;;;2256749;61;1177;-87
2021/05/18 12:33:56;107562.00;0.36;186.62;0.00;0.00;0.62;;;;;19.70;1.00;;;;;;2257456;61;1404;-87
2021/05/18 12:36:23;142188.00;0.47;246.34;0.00;0.00;0.62;;;;;18.90;1.00;;;;;;2257231;61;1097;-87
2021/05/18 12:39:13;280535.00;0.94;484.46;0.00;0.00;0.62;;;;;18.60;1.00;;;;;;2258731;61;1101;-87
2021/05/18 12:41:56;192975.00;0.64;333.83;0.00;0.00;0.62;;;;;17.80;1.00;;;;;;2258705;61;1093;-87
2021/05/18 12:44:25;61676.00;0.21;107.37;0.00;0.00;0.62;;;;;17.20;1.00;;;;;;2259081;61;1397;-88
2021/05/18 12:47:02;102937.00;0.34;178.64;0.00;0.00;0.62;;;;;16.90;1.00;;;;;;2265459;61;1915;-88
2021/05/18 12:49:34;192389.00;0.64;332.82;0.00;0.00;0.62;;;;;17.00;1.00;;;;;;2272411;61;1144;-88
2021/05/18 12:52:07;262444.00;0.87;453.35;0.00;0.00;0.62;;;;;17.50;1.00;;;;;;2272592;61;1983;-88
2021/05/18 12:54:44;70325.00;0.23;122.32;0.00;0.00;0.62;;;;;18.30;1.00;;;;;;2272477;61;2004;-88
2021/05/18 12:57:13;64602.00;0.22;112.43;0.00;0.00;0.62;;;;;18.70;1.00;;;;;;2271079;61;1741;-88
2021/05/18 13:00:01;7716.00;0.03;13.99;0.00;0.00;0.62;;;;;18.80;1.00;;;;;;2271499;61;1104;-88
2021/05/18 13:02:33;34223.00;0.11;59.89;0.00;0.00;0.62;;;;;19.40;1.00;;;;;;2272006;61;1115;-88
2021/05/18 13:05:15;106028.00;0.35;183.98;0.00;0.00;0.62;;;;;19.60;1.00;;;;;;2272094;61;1475;-87
2021/05/18 13:07:43;84671.00;0.28;147.11;0.00;0.00;0.62;;;;;20.00;1.00;;;;;;2271554;61;1978;-87
2021/05/18 13:10:18;226659.00;0.76;391.80;25258.00;0.08;44.37;;;;;19.40;1.00;;;;;;2270963;61;1007;-87
2021/05/18 13:12:45;195290.00;0.65;337.82;0.00;0.00;0.62;;;;;19.00;1.00;;;;;;2272026;61;1183;-88
2021/05/18 13:15:19;207031.00;0.69;358.03;0.00;0.00;0.62;;;;;19.30;1.00;;;;;;2270813;61;1336;-88
2021/05/18 13:17:57;280561.00;0.94;484.50;0.00;0.00;0.62;;;;;19.10;1.00;;;;;;2270063;61;1050;-87
2021/05/18 13:20:24;177348.00;0.59;306.92;0.00;0.00;0.62;;;;;18.80;1.00;;;;;;2271130;61;1224;-88
2021/05/18 13:22:55;95917.00;0.32;166.52;0.00;0.00;0.62;;;;;19.10;1.00;;;;;;2263742;61;1225;-88
2021/05/18 13:28:06;49194.00;0.16;85.79;0.00;0.00;0.62;;;;;18.90;1.00;;;;;;2270228;61;1922;-88
2021/05/18 13:30:34;138965.00;0.46;240.79;0.00;0.00;0.62;;;;;18.90;1.00;;;;;;2271167;61;1193;-86
2021/05/18 13:33:04;189237.00;0.63;327.39;0.00;0.00;0.62;;;;;19.00;1.00;;;;;;2272477;61;1769;-85
2021/05/18 13:35:31;222717.00;0.74;385.02;0.00;0.00;0.62;;;;;19.10;1.00;;;;;;2260801;61;1440;-88
2021/05/18 13:37:58;220642.00;0.74;381.45;0.00;0.00;0.62;;;;;19.40;1.00;;;;;;2271546;61;997;-88
2021/05/18 13:40:25;202471.00;0.67;350.18;0.00;0.00;0.62;;;;;19.90;1.00;;;;;;2263134;61;1068;-88
2021/05/18 13:42:52;250065.00;0.83;432.06;0.00;0.00;0.62;;;;;19.70;1.00;;;;;;2263225;61;1244;-88
2021/05/18 13:45:20;163680.00;0.55;283.38;0.00;0.00;0.62;;;;;19.50;1.00;;;;;;2264530;61;1436;-88
2021/05/18 13:47:49;84277.00;0.28;146.42;0.00;0.00;0.62;;;;;19.90;1.00;;;;;;2267048;61;1915;-87
2021/05/18 13:50:17;194053.00;0.65;335.69;0.00;0.00;0.62;;;;;19.80;1.00;;;;;;2266406;61;1261;-88
2021/05/18 13:52:43;146230.00;0.49;253.31;0.00;0.00;0.62;;;;;19.60;1.00;;;;;;2266108;61;1164;-88
2021/05/18 13:55:11;210043.00;0.70;363.21;0.00;0.00;0.62;;;;;19.80;1.00;;;;;;2265792;61;1293;-87
2021/05/18 13:57:37;133101.00;0.44;230.68;0.00;0.00;0.62;;;;;19.60;1.00;;;;;;2266341;61;1132;-87
2021/05/18 14:00:09;209845.00;0.70;362.87;0.00;0.00;0.62;;;;;19.60;1.00;;;;;;2265723;61;1106;-87
2021/05/18 14:02:37;97501.00;0.33;169.26;0.00;0.00;0.62;;;;;19.50;1.00;;;;;;2267797;61;1134;-87
2021/05/18 14:05:05;108846.00;0.36;188.84;0.00;0.00;0.62;;;;;19.70;1.00;;;;;;2270442;61;1278;-87
2021/05/18 14:10:24;22958.00;0.08;40.39;0.00;0.00;0.62;;;;;19.40;1.00;;;;;;2268010;61;1555;-86